Time;durP1;ratioP1;P1;durP2;ratioP2;P2;SDS_P1;SDS_P2;PMS_P1;PMS_P2;Temp;Humidity;BMP_temperature;BMP_pressure;BME280_temperature;BME280_humidity;BME280_pressure;Samples;Min_cycle;Max_cycle;Signal;HPM_P1;HPM_P2
2022/03/30 00:00:12;;;;;;;5.53;3.65;;;;;;;0.57;53.03;98512.50;4867131;29;20044;-76
2022/03/30 00:02:39;;;;;;;5.28;3.50;;;;;;;0.53;53.29;98505.66;4858131;29;20049;-78
2022/03/30 00:05:05;;;;;;;5.70;3.60;;;;;;;0.49;53.21;98503.91;4870418;29;20506;-81
2022/03/30 00:07:32;;;;;;;4.88;3.40;;;;;;;0.48;53.27;98506.44;4842217;29;20088;-81
2022/03/30 00:10:03;;;;;;;5.40;3.20;;;;;;;0.40;53.24;98506.34;4869488;29;20147;-79
2022/03/30 00:12:30;;;;;;;5.72;3.42;;;;;;;0.34;52.96;98501.16;4869402;29;20506;-78
2022/03/30 00:14:57;;;;;;;6.65;3.70;;;;;;;0.50;52.56;98522.66;4860045;29;20044;-79
2022/03/30 00:17:23;;;;;;;5.22;3.33;;;;;;;0.34;52.67;98504.59;4869320;29;20041;-79
2022/03/30 00:19:49;;;;;;;6.53;3.63;;;;;;;0.34;52.86;98514.81;4855118;29;20037;-78
2022/03/30 00:22:16;;;;;;;6.22;3.70;;;;;;;0.39;52.23;98512.31;4877171;29;20095;-80
2022/03/30 00:24:43;;;;;;;5.68;3.45;;;;;;;0.42;53.06;98523.47;4871123;29;20612;-77
2022/03/30 00:27:12;;;;;;;5.25;3.40;;;;;;;0.50;52.80;98530.34;4855611;29;20080;-76
2022/03/30 00:29:39;;;;;;;5.93;3.88;;;;;;;0.50;52.53;98533.78;4835294;29;20101;-77
2022/03/30 00:32:05;;;;;;;5.60;3.47;;;;;;;0.45;52.74;98537.97;4880592;29;20052;-78
2022/03/30 00:34:31;;;;;;;7.63;3.75;;;;;;;0.43;52.44;98537.09;4865953;29;20076;-77
2022/03/30 00:36:57;;;;;;;7.18;3.53;;;;;;;0.43;52.26;98532.84;4869100;29;20056;-78
2022/03/30 00:39:23;;;;;;;5.68;3.80;;;;;;;0.38;52.14;98531.94;4885653;29;20040;-78
2022/03/30 00:41:49;;;;;;;5.72;3.70;;;;;;;0.33;52.06;98532.72;4881098;29;20751;-78
2022/03/30 00:44:15;;;;;;;5.80;3.47;;;;;;;0.33;52.43;98530.19;4885417;29;20045;-78
2022/03/30 00:46:43;;;;;;;5.18;3.75;;;;;;;0.29;52.06;98516.47;4868465;29;20469;-77
2022/03/30 00:49:09;;;;;;;5.32;3.67;;;;;;;0.21;51.21;98518.94;4880550;29;20056;-77
2022/03/30 00:51:35;;;;;;;7.38;4.10;;;;;;;0.29;51.68;98537.81;4874964;29;20104;-82
2022/03/30 00:54:02;;;;;;;5.07;3.40;;;;;;;0.31;51.85;98545.50;4877011;29;20072;-79
2022/03/30 00:56:30;;;;;;;5.95;3.78;;;;;;;0.03;51.17;98519.53;4890054;29;20037;-79
2022/03/30 00:58:56;;;;;;;5.80;3.67;;;;;;;0.24;51.88;98548.81;4879837;29;20034;-81
2022/03/30 01:01:25;;;;;;;5.28;3.58;;;;;;;0.23;51.34;98547.97;4874975;29;20044;-79
2022/03/30 01:03:51;;;;;;;5.55;3.22;;;;;;;0.04;51.55;98520.44;4886829;29;20075;-80
2022/03/30 01:06:17;;;;;;;5.22;3.47;;;;;;;0.30;51.86;98561.69;4876159;29;20045;-78
2022/03/30 01:08:45;;;;;;;4.40;3.17;;;;;;;0.30;50.94;98548.88;4876686;29;20045;-78
2022/03/30 01:11:12;;;;;;;5.50;3.45;;;;;;;0.35;51.46;98559.19;4852914;29;20041;-80
2022/03/30 01:13:39;;;;;;;5.82;3.30;;;;;;;0.29;50.78;98553.16;4853289;29;20048;-77
2022/03/30 01:16:06;;;;;;;4.90;3.35;;;;;;;0.35;50.61;98557.50;4836241;29;20409;-78
2022/03/30 01:18:39;;;;;;;5.15;3.22;;;;;;;0.13;51.13;98538.44;4873748;29;20068;-78
2022/03/30 01:21:07;;;;;;;6.13;3.47;;;;;;;0.27;50.54;98567.63;4869581;29;20055;-80
2022/03/30 01:23:32;;;;;;;6.07;3.60;;;;;;;0.29;50.23;98565.97;4872478;29;20109;-79
2022/03/30 01:25:58;;;;;;;5.47;3.33;;;;;;;0.23;50.68;98553.06;4870181;29;20136;-79
2022/03/30 01:28:28;;;;;;;4.72;3.30;;;;;;;0.14;50.13;98545.28;4858654;29;20045;-78
2022/03/30 01:33:47;;;;;;;3.22;2.53;;;;;;;0.26;50.71;98567.59;4884947;29;20033;-77
2022/03/30 01:36:16;;;;;;;3.95;2.90;;;;;;;0.25;50.74;98587.22;4868704;29;20506;-79
2022/03/30 01:38:45;;;;;;;4.35;3.03;;;;;;;0.18;50.63;98574.34;4869977;29;20065;-80
2022/03/30 01:41:12;;;;;;;4.57;3.00;;;;;;;0.14;50.48;98574.28;4872719;29;20045;-79
2022/03/30 01:43:47;;;;;;;7.63;4.10;;;;;;;0.18;50.18;98580.31;4870839;29;20048;-82
2022/03/30 01:46:13;;;;;;;6.50;4.43;;;;;;;0.16;51.08;98576.84;4855796;29;20556;-77
2022/03/30 01:48:39;;;;;;;7.32;4.75;;;;;;;0.18;51.11;98584.56;4873277;29;21225;-77
2022/03/30 01:51:20;;;;;;;7.35;4.90;;;;;;;-0.11;51.58;98547.50;4863932;29;20073;-77
2022/03/30 01:53:46;;;;;;;7.25;5.05;;;;;;;0.14;50.68;98586.22;4870576;29;20040;-78
2022/03/30 01:56:46;;;;;;;6.15;5.10;;;;;;;0.09;51.33;98583.59;4875907;29;20502;-79
2022/03/30 01:59:26;;;;;;;8.35;5.03;;;;;;;-0.39;51.93;98515.56;4818785;29;20048;-82
2022/03/30 02:02:34;;;;;;;7.30;5.15;;;;;;;-0.72;51.74;98475.91;4870196;29;20512;-79
2022/03/30 02:05:10;;;;;;;6.60;4.72;;;;;;;-0.41;52.29;98548.78;4856360;29;20068;-85
2022/03/30 02:07:37;;;;;;;7.43;4.90;;;;;;;-0.17;52.16;98596.88;4871513;29;20402;-82
2022/03/30 02:10:05;;;;;;;8.05;5.18;;;;;;;-0.16;52.49;98595.19;4871972;29;20045;-81
2022/03/30 02:12:30;;;;;;;8.13;4.57;;;;;;;-0.30;52.08;98589.84;4862211;29;20044;-80
2022/03/30 02:15:13;;;;;;;8.75;5.45;;;;;;;-0.36;52.64;98582.06;4872447;29;20049;-79
2022/03/30 02:18:39;;;;;;;;;;;;;;;;;;;;;
2022/03/30 02:21:36;;;;;;;7.07;4.75;;;;;;;-0.42;52.88;98594.75;4850455;29;20148;-79
2022/03/30 02:24:02;;;;;;;6.80;4.75;;;;;;;-0.34;52.62;98616.19;4871546;29;20036;-79
2022/03/30 02:26:30;;;;;;;8.18;4.53;;;;;;;-0.47;52.70;98610.03;4858107;29;20123;-80
2022/03/30 02:28:56;;;;;;;6.57;4.70;;;;;;;-0.43;52.69;98616.03;4869462;29;20045;-79
2022/03/30 02:31:23;;;;;;;9.48;4.95;;;;;;;-0.49;53.03;98617.69;4870901;29;20524;-81
2022/03/30 02:33:49;;;;;;;7.53;4.47;;;;;;;-0.53;53.10;98621.00;4854305;29;20042;-81
2022/03/30 02:36:16;;;;;;;6.78;4.28;;;;;;;-0.70;53.56;98615.59;4838905;29;20041;-78
2022/03/30 02:38:43;;;;;;;7.03;4.80;;;;;;;-0.69;53.43;98634.38;4869871;29;20045;-79
2022/03/30 02:41:09;;;;;;;8.23;4.80;;;;;;;-0.76;53.50;98625.72;4853494;29;20424;-80
2022/03/30 02:43:36;;;;;;;7.35;4.53;;;;;;;-0.89;53.36;98616.13;4836066;29;20097;-80
2022/03/30 02:46:03;;;;;;;8.45;5.05;;;;;;;-0.80;53.66;98647.78;4854713;29;20056;-80
2022/03/30 02:48:29;;;;;;;8.00;4.85;;;;;;;-0.84;53.91;98642.63;4870997;29;20054;-80
2022/03/30 02:50:58;;;;;;;8.70;4.70;;;;;;;-0.82;53.80;98646.06;4870501;29;20068;-78
2022/03/30 02:53:25;;;;;;;7.63;5.03;;;;;;;-0.78;53.61;98660.63;4870468;29;20390;-79
2022/03/30 02:55:51;;;;;;;8.05;4.78;;;;;;;-0.77;53.85;98658.06;4854357;29;20048;-79
2022/03/30 02:58:19;;;;;;;6.10;4.15;;;;;;;-1.05;54.02;98610.72;4871294;29;20121;-81
2022/03/30 03:00:46;;;;;;;7.30;4.50;;;;;;;-0.73;53.42;98661.53;4869965;29;20041;-77
2022/03/30 03:03:12;;;;;;;7.78;4.13;;;;;;;-0.63;53.64;98673.66;4838221;29;20041;-81
2022/03/30 03:05:41;;;;;;;7.45;4.28;;;;;;;-0.76;53.72;98653.81;4855695;29;20049;-81
2022/03/30 03:08:12;;;;;;;8.98;3.92;;;;;;;-0.68;53.54;98669.31;4891652;29;20149;-78
2022/03/30 03:10:40;;;;;;;4.45;3.58;;;;;;;-0.73;53.24;98681.97;4887642;29;20097;-77
2022/03/30 03:13:07;;;;;;;6.20;3.65;;;;;;;-0.66;53.07;98694.03;4869958;29;20063;-81
2022/03/30 03:15:35;;;;;;;4.65;3.38;;;;;;;-0.68;53.58;98688.03;4869110;29;20100;-79
2022/03/30 03:18:04;;;;;;;4.97;3.50;;;;;;;-0.89;53.37;98656.97;4856726;29;20037;-77
2022/03/30 03:20:31;;;;;;;19.23;9.32;;;;;;;-0.82;53.56;98681.81;4869050;29;20064;-79
2022/03/30 03:23:06;;;;;;;6.05;4.10;;;;;;;-0.83;53.79;98703.09;4854820;29;20160;-78
2022/03/30 03:25:33;;;;;;;5.88;3.92;;;;;;;-0.89;53.56;98716.63;4841129;29;20495;-77
2022/03/30 03:28:00;;;;;;;6.53;3.30;;;;;;;-1.02;53.77;98706.97;4867813;29;20105;-78
2022/03/30 03:30:27;;;;;;;4.43;3.38;;;;;;;-0.99;53.70;98712.13;4868531;29;20096;-77
2022/03/30 03:32:56;;;;;;;5.05;3.00;;;;;;;-0.96;54.07;98718.16;4852848;29;20512;-78
2022/03/30 03:35:22;;;;;;;5.57;3.35;;;;;;;-1.02;53.93;98710.41;4854440;29;20041;-76
2022/03/30 03:37:48;;;;;;;4.63;3.10;;;;;;;-0.96;54.12;98723.25;4862774;29;20135;-79
2022/03/30 03:40:14;;;;;;;6.72;3.60;;;;;;;-1.02;53.69;98717.19;4854818;29;20633;-80
2022/03/30 03:42:40;;;;;;;3.10;2.53;;;;;;;-1.16;53.65;98722.88;4849896;29;20051;-76
2022/03/30 03:45:07;;;;;;;4.22;2.58;;;;;;;-1.22;53.41;98717.63;4853616;29;20057;-79
2022/03/30 03:47:34;;;;;;;3.58;2.97;;;;;;;-1.22;53.41;98741.50;4853234;29;20161;-79
2022/03/30 03:49:59;;;;;;;3.55;2.60;;;;;;;-1.37;53.36;98747.13;4871156;29;20162;-78
2022/03/30 03:52:26;;;;;;;6.20;3.33;;;;;;;-1.41;53.60;98744.44;4857972;29;20041;-82
2022/03/30 03:54:52;;;;;;;3.80;2.67;;;;;;;-1.38;53.53;98752.16;4869366;29;20040;-78
2022/03/30 03:57:18;;;;;;;3.78;2.95;;;;;;;-1.53;53.29;98740.78;4853734;29;20446;-79
2022/03/30 03:59:44;;;;;;;6.68;2.75;;;;;;;-1.66;53.42;98720.94;4853323;29;20109;-79
2022/03/30 04:02:10;;;;;;;6.25;2.83;;;;;;;-1.58;53.30;98721.13;4854615;29;20079;-80
2022/03/30 04:04:40;;;;;;;3.17;2.58;;;;;;;-1.30;52.89;98752.34;4870349;29;20076;-78
2022/03/30 04:07:06;;;;;;;4.05;2.40;;;;;;;-1.16;52.63;98763.72;4843178;29;20048;-78
2022/03/30 04:09:32;;;;;;;4.85;2.70;;;;;;;-1.08;52.88;98751.13;4869636;29;20048;-79
2022/03/30 04:11:58;;;;;;;6.07;2.75;;;;;;;-0.95;51.99;98770.97;4843375;29;20041;-78
2022/03/30 04:14:24;;;;;;;3.75;2.60;;;;;;;-0.87;52.10;98777.94;4869213;29;20041;-78
2022/03/30 04:16:50;;;;;;;6.72;2.72;;;;;;;-0.64;52.30;98783.50;4853466;29;21099;-82
2022/03/30 04:19:17;;;;;;;6.30;2.45;;;;;;;-1.12;51.24;98681.25;4855380;29;20037;-80
2022/03/30 04:21:50;;;;;;;3.80;2.75;;;;;;;-1.03;51.64;98683.13;4852587;29;20060;-80
2022/03/30 04:24:20;;;;;;;5.90;3.90;;;;;;;-0.52;50.61;98749.66;4838804;29;20048;-79
2022/03/30 04:26:51;;;;;;;5.07;3.58;;;;;;;-0.01;50.79;98781.28;4849517;29;20041;-79
2022/03/30 04:29:17;;;;;;;4.80;3.35;;;;;;;-0.11;50.79;98702.66;4837341;29;20049;-80
2022/03/30 04:31:44;;;;;;;4.78;2.80;;;;;;;0.77;49.99;98792.72;4854298;29;20041;-81
2022/03/30 04:34:10;;;;;;;2.55;2.20;;;;;;;0.99;49.52;98788.78;4856319;29;20269;-80
2022/03/30 04:36:35;;;;;;;3.10;2.60;;;;;;;1.23;49.20;98789.91;4854321;29;20045;-80
2022/03/30 04:39:03;;;;;;;3.35;2.58;;;;;;;1.20;48.78;98757.44;4853634;29;20045;-81
2022/03/30 04:41:28;;;;;;;3.50;2.58;;;;;;;1.59;48.00;98804.03;4861182;29;20053;-77
2022/03/30 04:44:01;;;;;;;3.80;2.47;;;;;;;0.99;47.46;98653.00;4883614;29;20045;-79
2022/03/30 04:46:28;;;;;;;3.85;2.38;;;;;;;1.87;46.86;98807.75;4869156;29;20065;-78
2022/03/30 04:48:57;;;;;;;2.67;2.28;;;;;;;1.69;46.63;98794.75;4863477;29;20059;-80
2022/03/30 04:51:23;;;;;;;7.40;2.53;;;;;;;1.49;46.82;98795.38;4872190;29;20070;-79
2022/03/30 04:53:49;;;;;;;4.53;2.75;;;;;;;1.13;46.52;98794.06;4849097;29;20037;-79
2022/03/30 04:56:15;;;;;;;3.67;2.42;;;;;;;1.02;46.48;98823.00;4855090;29;20040;-79
2022/03/30 04:58:41;;;;;;;5.38;2.58;;;;;;;1.14;46.76;98806.03;4865706;29;20053;-79
2022/03/30 05:01:09;;;;;;;3.83;2.85;;;;;;;1.99;47.61;98825.00;4884481;29;20436;-80
2022/03/30 05:03:35;;;;;;;2.72;2.22;;;;;;;3.57;46.09;98795.22;4886610;29;20080;-80
2022/03/30 05:06:01;;;;;;;3.63;2.30;;;;;;;5.98;44.82;98802.63;4888108;29;20053;-82
2022/03/30 05:08:28;;;;;;;2.85;2.53;;;;;;;8.18;41.90;98800.34;4876199;29;20072;-80
2022/03/30 05:10:54;;;;;;;3.50;2.40;;;;;;;9.95;40.00;98803.19;4876773;29;20052;-80
2022/03/30 05:13:20;;;;;;;3.88;2.95;;;;;;;11.70;37.78;98816.13;4894194;29;20156;-82
2022/03/30 05:15:46;;;;;;;2.72;2.40;;;;;;;13.09;35.20;98810.88;4893181;29;20125;-80
2022/03/30 05:18:12;;;;;;;4.05;2.50;;;;;;;13.84;33.87;98777.69;4876467;29;20041;-81
2022/03/30 05:20:43;;;;;;;3.38;2.35;;;;;;;15.03;31.62;98805.22;4892843;29;20077;-78
2022/03/30 05:23:10;;;;;;;3.60;2.25;;;;;;;15.32;30.63;98780.38;4862669;29;20073;-80
2022/03/30 05:25:37;;;;;;;2.45;2.03;;;;;;;16.47;30.14;98803.91;4879581;29;20034;-79
2022/03/30 05:28:03;;;;;;;3.97;2.30;;;;;;;17.27;28.63;98793.81;4861351;29;20071;-80
2022/03/30 05:30:29;;;;;;;2.80;1.90;;;;;;;17.82;27.04;98799.69;4871786;29;20056;-79
2022/03/30 05:32:55;;;;;;;2.50;1.90;;;;;;;18.75;26.58;98817.34;4889075;29;20042;-80
2022/03/30 05:35:22;;;;;;;3.13;2.20;;;;;;;18.30;26.06;98830.44;4891672;29;20056;-80
2022/03/30 05:37:50;;;;;;;3.50;2.38;;;;;;;19.49;25.15;98812.97;4874494;29;20048;-79
2022/03/30 05:40:16;;;;;;;3.25;2.78;;;;;;;20.57;23.89;98804.44;4895268;29;20021;-79
2022/03/30 05:42:45;;;;;;;3.00;2.25;;;;;;;21.28;22.50;98786.50;4877445;29;20025;-85
2022/03/30 05:45:12;;;;;;;3.63;2.75;;;;;;;21.83;22.00;98796.78;4882521;29;20154;-82
2022/03/30 05:47:42;;;;;;;3.47;2.70;;;;;;;22.16;21.44;98741.47;4861143;29;20045;-80
2022/03/30 05:50:14;;;;;;;3.20;2.88;;;;;;;21.44;21.47;98772.19;4843363;29;20045;-80
2022/03/30 05:52:40;;;;;;;3.47;2.70;;;;;;;19.61;21.39;98803.47;4840651;29;20037;-81
2022/03/30 05:55:09;;;;;;;3.80;2.72;;;;;;;17.05;21.98;98846.66;4856081;29;20040;-82
2022/03/30 05:57:35;;;;;;;3.05;2.50;;;;;;;17.94;23.25;98811.31;4875177;29;20041;-80
2022/03/30 06:00:05;;;;;;;6.18;2.42;;;;;;;19.69;21.40;98800.34;4857999;29;20128;-81
2022/03/30 06:02:39;;;;;;;2.95;2.65;;;;;;;21.74;20.20;98815.97;4857882;29;20056;-78
2022/03/30 06:05:14;;;;;;;3.15;2.50;;;;;;;23.08;19.76;98833.66;4858880;29;20045;-85
2022/03/30 06:07:41;;;;;;;6.53;2.70;;;;;;;24.35;18.54;98834.38;4848436;29;20535;-79
2022/03/30 06:10:08;;;;;;;2.75;2.33;;;;;;;25.15;17.65;98834.06;4848658;29;20898;-80
2022/03/30 06:12:34;;;;;;;2.67;2.47;;;;;;;24.64;17.22;98800.06;4887626;29;20041;-82
2022/03/30 06:15:00;;;;;;;2.58;2.28;;;;;;;25.38;17.06;98851.56;4873449;29;20084;-83
2022/03/30 06:17:30;;;;;;;2.60;2.40;;;;;;;26.45;16.45;98849.47;4866791;29;20057;-81
2022/03/30 06:19:59;;;;;;;2.70;2.13;;;;;;;27.06;15.79;98789.63;4863316;29;20064;-80
2022/03/30 06:22:29;;;;;;;2.80;2.60;;;;;;;26.91;15.88;98844.44;4876687;29;20068;-81
2022/03/30 06:24:56;;;;;;;3.25;2.60;;;;;;;27.79;15.13;98840.69;4887061;29;20033;-81
2022/03/30 06:27:23;;;;;;;3.00;2.63;;;;;;;28.74;14.74;98834.19;4878690;29;20155;-80
2022/03/30 06:29:49;;;;;;;4.50;3.03;;;;;;;28.63;14.17;98777.25;4883941;29;20049;-81
2022/03/30 06:32:15;;;;;;;3.30;3.00;;;;;;;28.07;14.07;98813.97;4881633;29;20048;-80
2022/03/30 06:34:41;;;;;;;2.95;2.60;;;;;;;28.15;14.19;98794.53;4862544;29;20079;-83
2022/03/30 06:37:08;;;;;;;3.60;2.45;;;;;;;28.80;13.29;98871.06;4847016;29;20078;-83
2022/03/30 06:39:37;;;;;;;4.28;2.47;;;;;;;25.76;13.93;98806.63;4863346;29;20041;-83
2022/03/30 06:42:12;;;;;;;2.90;2.70;;;;;;;23.57;14.64;98720.19;4876393;29;20079;-82
2022/03/30 06:44:41;;;;;;;2.80;2.60;;;;;;;23.83;14.85;98877.44;4832438;29;20454;-83
2022/03/30 06:47:09;;;;;;;3.22;2.80;;;;;;;21.77;15.54;98880.16;4864645;29;20520;-79
2022/03/30 06:49:37;;;;;;;4.03;3.03;;;;;;;20.53;16.31;98851.34;4849915;29;20188;-79
2022/03/30 06:52:08;;;;;;;2.35;2.15;;;;;;;19.96;16.22;98884.06;4850818;29;20533;-82
2022/03/30 06:54:35;;;;;;;2.67;2.47;;;;;;;21.44;16.11;98856.84;4833201;29;20040;-80
2022/03/30 06:57:05;;;;;;;3.03;2.25;;;;;;;20.47;16.15;98826.19;4875791;29;20053;-82
2022/03/30 06:59:31;;;;;;;3.15;2.85;;;;;;;18.98;16.28;98808.09;4860425;29;20048;-83
2022/03/30 07:01:58;;;;;;;2.70;2.47;;;;;;;17.63;16.85;98804.25;4859087;29;20486;-85
2022/03/30 07:04:24;;;;;;;3.92;2.72;;;;;;;17.06;17.75;98847.47;4858724;29;20051;-83
2022/03/30 07:12:21;;;;;;;3.60;3.00;;;;;;;19.21;17.01;98854.19;4858374;29;20509;-83
2022/03/30 07:14:47;;;;;;;4.35;3.10;;;;;;;17.31;16.89;98891.78;4874481;29;20051;-81
2022/03/30 07:17:13;;;;;;;5.55;2.80;;;;;;;15.17;18.18;98933.00;4840503;29;20115;-84
2022/03/30 07:19:40;;;;;;;4.65;2.65;;;;;;;13.08;19.15;98878.84;4857107;29;20052;-80
2022/03/30 07:22:07;;;;;;;3.08;2.50;;;;;;;12.44;19.81;98880.03;4838915;29;20052;-81
2022/03/30 07:24:33;;;;;;;3.67;2.60;;;;;;;12.20;20.16;98929.44;4871196;29;20040;-80
2022/03/30 07:26:59;;;;;;;5.38;2.67;;;;;;;12.06;21.05;98945.47;4872550;29;20060;-81
2022/03/30 07:29:25;;;;;;;6.60;2.70;;;;;;;11.90;20.73;98945.00;4858110;29;20084;-83
2022/03/30 07:31:51;;;;;;;4.63;2.55;;;;;;;11.59;21.04;98922.38;4878181;29;20061;-83
2022/03/30 07:34:17;;;;;;;3.20;2.20;;;;;;;13.25;20.96;98859.94;4845942;29;20045;-80
2022/03/30 07:36:43;;;;;;;3.92;2.20;;;;;;;14.42;20.01;98941.19;4856968;29;20040;-81
2022/03/30 07:39:09;;;;;;;2.88;2.45;;;;;;;16.03;19.69;98933.72;4838000;29;20536;-80
2022/03/30 07:41:35;;;;;;;5.97;2.50;;;;;;;16.02;18.94;98942.50;4857253;29;20040;-80
2022/03/30 07:44:02;;;;;;;4.25;2.97;;;;;;;15.70;19.37;98941.28;4857236;29;20619;-80
2022/03/30 07:46:28;;;;;;;5.95;2.33;;;;;;;16.22;19.14;98910.09;4856321;29;20600;-81
2022/03/30 07:48:54;;;;;;;3.08;2.50;;;;;;;18.46;18.75;98938.38;4874228;29;20037;-79
2022/03/30 07:51:20;;;;;;;3.08;2.40;;;;;;;20.73;17.21;98904.72;4842777;29;20052;-79
2022/03/30 07:53:46;;;;;;;4.47;2.35;;;;;;;20.75;16.72;98930.09;4874167;29;20044;-80
2022/03/30 07:56:13;;;;;;;3.08;2.67;;;;;;;18.21;16.71;98890.56;4874606;29;20061;-80
2022/03/30 07:58:39;;;;;;;4.18;2.88;;;;;;;16.71;17.51;98954.22;4889366;29;20660;-79
2022/03/30 08:01:04;;;;;;;5.47;2.65;;;;;;;15.75;18.06;98911.31;4857541;29;20105;-78
2022/03/30 08:03:30;;;;;;;5.45;3.15;;;;;;;15.31;18.47;98946.41;4870401;29;20139;-81
2022/03/30 08:05:56;;;;;;;6.10;4.00;;;;;;;14.31;19.04;98949.44;4851595;29;20413;-82
2022/03/30 08:08:22;;;;;;;7.68;3.30;;;;;;;15.51;19.33;98939.47;4854414;29;20421;-82
2022/03/30 08:10:49;;;;;;;4.07;3.10;;;;;;;17.17;18.37;98918.75;4841182;29;20048;-79
2022/03/30 08:13:15;;;;;;;4.18;2.95;;;;;;;16.18;17.79;98952.31;4853826;29;20101;-79
2022/03/30 08:15:42;;;;;;;3.13;2.83;;;;;;;16.71;18.06;98955.97;4869205;29;20060;-78
2022/03/30 08:18:09;;;;;;;4.80;2.92;;;;;;;15.44;18.40;98940.63;4852755;29;20083;-80
2022/03/30 08:23:19;;;;;;;4.22;2.63;;;;;;;13.64;19.58;98934.44;4852466;29;20044;-81
2022/03/30 08:25:45;;;;;;;2.95;2.20;;;;;;;13.82;19.71;98973.00;4873998;29;20374;-80
2022/03/30 08:28:13;;;;;;;4.18;2.35;;;;;;;13.36;19.83;98964.09;4839456;29;20045;-82
2022/03/30 08:30:39;;;;;;;4.00;2.58;;;;;;;12.32;20.43;98957.75;4872677;29;20105;-81
2022/03/30 08:33:05;;;;;;;4.28;3.03;;;;;;;12.02;20.38;98926.47;4871287;29;20052;-82
2022/03/30 08:35:34;;;;;;;4.53;2.10;;;;;;;11.82;20.59;98981.72;4854637;29;20497;-80
2022/03/30 08:38:06;;;;;;;3.03;2.00;;;;;;;10.99;20.95;98976.84;4870771;29;20045;-82
2022/03/30 08:40:34;;;;;;;;;;;;;;;10.44;21.50;98984.16;4869831;29;20480;-82
2022/03/30 08:43:00;;;;;;;4.03;2.28;;;;;;;11.60;21.66;98956.25;4852194;29;20248;-80
2022/03/30 08:45:26;;;;;;;2.17;1.85;;;;;;;11.44;21.05;98947.13;4852489;29;20056;-81
2022/03/30 08:47:53;;;;;;;3.00;1.88;;;;;;;11.21;21.50;98968.53;4853759;29;20052;-83
2022/03/30 08:50:20;;;;;;;2.70;1.90;;;;;;;11.01;21.32;98977.69;4852099;29;20050;-79
2022/03/30 08:52:49;;;;;;;2.90;2.05;;;;;;;10.63;21.64;98990.66;4858538;29;20053;-79
2022/03/30 08:55:16;;;;;;;3.40;1.90;;;;;;;10.14;21.82;98996.88;4854482;29;20052;-79
2022/03/30 08:57:42;;;;;;;2.05;1.67;;;;;;;9.86;22.09;98981.81;4852836;29;20453;-81
2022/03/30 09:00:13;;;;;;;2.58;1.58;;;;;;;10.68;22.04;98900.38;4840154;29;20045;-81
2022/03/30 09:03:01;;;;;;;1.93;1.50;;;;;;;11.51;21.30;98982.53;4868997;29;20053;-81
2022/03/30 09:05:32;;;;;;;1.50;1.40;;;;;;;12.12;21.21;98980.94;4853010;29;20090;-80
2022/03/30 09:08:10;;;;;;;2.25;1.63;;;;;;;12.38;21.00;98987.16;4866668;29;20050;-80
2022/03/30 09:10:36;;;;;;;2.45;1.40;;;;;;;11.79;21.02;98975.75;4870962;29;20136;-81
2022/03/30 09:13:05;;;;;;;2.40;1.70;;;;;;;10.82;20.93;98946.88;4854799;29;20089;-81
2022/03/30 09:15:33;;;;;;;1.63;1.40;;;;;;;10.58;21.71;98995.13;4855189;29;20400;-82
2022/03/30 09:18:03;;;;;;;2.25;1.83;;;;;;;10.18;21.65;98994.19;4856112;29;20079;-81
2022/03/30 09:20:33;;;;;;;2.78;1.90;;;;;;;9.71;22.34;98972.56;4851243;29;20061;-80
2022/03/30 09:23:00;;;;;;;1.98;1.77;;;;;;;9.24;22.82;98929.25;4856900;29;20081;-78
2022/03/30 09:25:31;;;;;;;4.55;2.25;;;;;;;9.19;22.87;98944.03;4841726;29;20450;-81
2022/03/30 09:27:59;;;;;;;3.85;2.00;;;;;;;9.45;22.73;98984.28;4850237;29;20073;-79
2022/03/30 09:30:26;;;;;;;7.15;6.45;;;;;;;9.23;22.66;98992.44;4854578;29;20155;-80
2022/03/30 09:32:54;;;;;;;4.47;2.30;;;;;;;8.88;23.17;98975.69;4862759;29;20053;-79
2022/03/30 09:35:27;;;;;;;2.92;1.60;;;;;;;8.80;23.20;99011.25;4887810;29;20044;-79
2022/03/30 09:38:13;;;;;;;4.00;1.70;;;;;;;8.50;23.48;99018.56;4877968;29;20056;-78
2022/03/30 09:40:54;;;;;;;5.43;2.00;;;;;;;8.04;23.88;98978.47;4852201;29;20045;-82
2022/03/30 09:43:26;;;;;;;2.55;1.95;;;;;;;8.03;24.07;99018.22;4852835;29;20044;-79
2022/03/30 09:46:13;;;;;;;5.32;2.20;;;;;;;7.81;24.04;99024.50;4853342;29;20938;-82
2022/03/30 09:48:53;;;;;;;5.70;2.17;;;;;;;7.73;24.14;99021.13;4825669;29;20398;-83
2022/03/30 09:51:21;;;;;;;2.97;1.92;;;;;;;8.52;24.93;98988.28;4853412;29;20048;-80
2022/03/30 09:53:49;;;;;;;3.15;2.00;;;;;;;9.44;23.71;99009.41;4852477;29;20049;-82
2022/03/30 09:56:22;;;;;;;3.70;2.05;;;;;;;9.20;23.44;98997.66;4866336;29;20076;-79
2022/03/30 09:58:49;;;;;;;2.67;2.00;;;;;;;8.67;23.31;99019.22;4866717;29;20090;-82
2022/03/30 10:01:29;;;;;;;4.43;2.30;;;;;;;8.75;24.59;98993.16;4856407;29;20084;-81
2022/03/30 10:04:01;;;;;;;3.72;2.38;;;;;;;11.71;24.05;99004.59;4853138;29;20041;-79
2022/03/30 10:06:35;;;;;;;3.92;2.92;;;;;;;14.06;22.56;98996.56;4871153;29;20109;-82
2022/03/30 10:09:01;;;;;;;7.93;2.45;;;;;;;15.50;20.75;98972.69;4841310;29;20144;-80
2022/03/30 10:11:29;;;;;;;2.38;2.10;;;;;;;15.11;19.88;98972.59;4853188;29;20152;-79
2022/03/30 10:13:59;;;;;;;7.53;2.25;;;;;;;15.50;20.79;98971.84;4871570;29;20052;-81
2022/03/30 10:16:27;;;;;;;3.47;2.20;;;;;;;17.38;19.66;98963.31;4872074;29;20045;-81
2022/03/30 10:18:54;;;;;;;3.92;1.88;;;;;;;19.20;18.75;98963.25;4870396;29;20382;-81
2022/03/30 10:21:42;;;;;;;3.08;1.63;;;;;;;19.22;17.69;98969.28;4872708;29;20048;-80
2022/03/30 10:24:30;;;;;;;3.08;1.20;;;;;;;16.43;17.79;98983.56;4873531;29;20455;-80
2022/03/30 10:27:05;;;;;;;2.22;1.30;;;;;;;14.72;18.46;98980.19;4852928;29;20069;-81
2022/03/30 10:29:34;;;;;;;2.85;1.60;;;;;;;13.49;18.94;98938.44;4872002;29;20057;-81
2022/03/30 10:32:15;;;;;;;2.25;1.75;;;;;;;12.66;19.42;98992.41;4856038;29;20405;-82
2022/03/30 10:34:53;;;;;;;1.85;1.50;;;;;;;12.16;19.77;98990.41;4860474;29;20060;-83
2022/03/30 10:37:36;;;;;;;7.00;3.20;;;;;;;11.97;20.73;98969.16;4856847;29;20045;-80
2022/03/30 10:40:05;;;;;;;3.17;1.83;;;;;;;11.89;20.27;98987.63;4874612;29;20053;-80
2022/03/30 10:42:47;;;;;;;3.08;1.83;;;;;;;11.66;20.72;98983.88;4856666;29;20054;-81
2022/03/30 10:45:24;;;;;;;2.35;1.58;;;;;;;11.29;20.75;98987.44;4864931;29;20052;-80
2022/03/30 10:48:22;;;;;;;2.20;1.60;;;;;;;10.82;21.56;98992.84;4879477;29;20041;-79
2022/03/30 10:50:54;;;;;;;3.45;1.73;;;;;;;10.59;21.67;98977.78;4881961;29;20041;-80
2022/03/30 10:53:38;;;;;;;3.90;1.88;;;;;;;10.62;21.90;98991.56;4886823;29;20104;-79
2022/03/30 10:56:09;;;;;;;5.20;3.67;;;;;;;10.51;21.78;98994.38;4879407;29;20056;-79
2022/03/30 10:58:37;;;;;;;3.35;1.88;;;;;;;10.03;21.63;98924.31;4890183;29;20053;-79
2022/03/30 11:01:15;;;;;;;2.92;1.63;;;;;;;9.97;21.72;98992.84;4870248;29;20052;-78
2022/03/30 11:03:56;;;;;;;2.72;1.50;;;;;;;9.53;22.28;98994.53;4865249;29;20059;-79
2022/03/30 11:06:24;;;;;;;3.53;1.70;;;;;;;9.21;22.42;98959.59;4861673;29;20044;-80
2022/03/30 11:08:51;;;;;;;3.13;1.80;;;;;;;9.22;22.52;99005.44;4879169;29;20124;-80
2022/03/30 11:11:26;;;;;;;1.52;1.33;;;;;;;8.89;22.40;99008.53;4887827;29;20049;-78
2022/03/30 11:14:33;;;;;;;3.17;1.42;;;;;;;8.74;22.70;99007.00;4847269;29;20053;-79
2022/03/30 11:17:02;;;;;;;6.88;1.40;;;;;;;8.69;22.89;99009.69;4870467;29;20060;-79
2022/03/30 11:19:49;;;;;;;5.55;1.50;;;;;;;7.37;22.90;98831.66;4870953;29;20048;-79
2022/03/30 11:22:34;;;;;;;5.05;1.80;;;;;;;7.84;22.99;98956.25;4866887;29;20091;-80
2022/03/30 11:25:10;;;;;;;7.03;2.28;;;;;;;7.59;23.34;99012.63;4847394;29;20472;-80
2022/03/30 11:27:39;;;;;;;6.38;2.35;;;;;;;6.77;23.66;98973.59;4857699;29;20049;-79
2022/03/30 11:30:14;;;;;;;3.15;1.70;;;;;;;5.97;23.61;98961.03;4860795;29;20076;-82
2022/03/30 11:33:06;;;;;;;6.55;1.52;;;;;;;5.24;24.05;98937.97;4860029;29;20052;-80
2022/03/30 11:35:39;;;;;;;5.25;1.70;;;;;;;5.43;24.49;99035.13;4826466;29;20057;-80
2022/03/30 11:38:11;;;;;;;3.35;1.73;;;;;;;5.15;24.78;98984.41;4881733;29;20108;-81
2022/03/30 11:40:43;;;;;;;1.75;1.40;;;;;;;5.70;24.06;99017.06;4850145;29;20124;-80
2022/03/30 11:43:11;;;;;;;3.83;2.08;;;;;;;5.75;24.06;98992.06;4864719;29;20044;-81
2022/03/30 11:45:39;;;;;;;5.20;1.67;;;;;;;5.54;24.01;98959.44;4879514;29;20140;-80
2022/03/30 11:48:10;;;;;;;5.47;1.55;;;;;;;5.50;24.46;98996.41;4883235;29;20097;-80
2022/03/30 11:50:36;;;;;;;5.03;1.40;;;;;;;5.24;24.93;99023.09;4853719;29;20036;-77
2022/03/30 11:53:13;;;;;;;4.18;1.30;;;;;;;4.78;24.43;99004.13;4885166;29;20060;-81
2022/03/30 11:56:06;;;;;;;2.42;1.20;;;;;;;4.70;25.03;99021.31;4848784;29;20087;-80
2022/03/30 11:58:38;;;;;;;6.28;1.35;;;;;;;4.57;25.02;98974.03;4864384;29;20053;-80
2022/03/30 12:01:06;;;;;;;3.90;1.63;;;;;;;4.97;25.23;99023.06;4856351;29;20037;-82